sensor_id;sensor_type;location;lat;lon;timestamp;temperature;humidity
58447;DHT22;44240;51.840;7.258;2023-01-10T00:00:37;8.10;99.90
58447;DHT22;44240;51.840;7.258;2023-01-10T00:03:04;8.00;99.90
58447;DHT22;44240;51.840;7.258;2023-01-10T00:05:30;8.00;99.90
58447;DHT22;44240;51.840;7.258;2023-01-10T00:07:56;7.90;99.90
58447;DHT22;44240;51.840;7.258;2023-01-10T00:10:24;7.90;99.90
58447;DHT22;44240;51.840;7.258;2023-01-10T00:12:49;7.80;99.90
58447;DHT22;44240;51.840;7.258;2023-01-10T00:15:35;7.80;99.90
58447;DHT22;44240;51.840;7.258;2023-01-10T00:18:01;7.70;99.90
58447;DHT22;44240;51.840;7.258;2023-01-10T00:20:26;7.70;99.90
58447;DHT22;44240;51.840;7.258;2023-01-10T00:22:52;7.60;99.90
58447;DHT22;44240;51.840;7.258;2023-01-10T00:25:17;7.60;99.90
58447;DHT22;44240;51.840;7.258;2023-01-10T00:27:46;7.60;99.90
58447;DHT22;44240;51.840;7.258;2023-01-10T00:30:14;7.60;99.90
58447;DHT22;44240;51.840;7.258;2023-01-10T00:32:43;7.60;99.90
58447;DHT22;44240;51.840;7.258;2023-01-10T00:35:11;7.60;99.90
58447;DHT22;44240;51.840;7.258;2023-01-10T00:37:38;7.50;99.90
58447;DHT22;44240;51.840;7.258;2023-01-10T00:40:05;7.50;99.90
58447;DHT22;44240;51.840;7.258;2023-01-10T00:42:35;7.50;99.90
58447;DHT22;44240;51.840;7.258;2023-01-10T00:45:19;7.50;99.90
58447;DHT22;44240;51.840;7.258;2023-01-10T00:47:47;7.40;99.90
58447;DHT22;44240;51.840;7.258;2023-01-10T00:50:12;7.40;99.90
58447;DHT22;44240;51.840;7.258;2023-01-10T00:52:38;7.40;99.90
58447;DHT22;44240;51.840;7.258;2023-01-10T00:55:04;7.40;99.90
58447;DHT22;44240;51.840;7.258;2023-01-10T00:57:29;7.40;99.90
58447;DHT22;44240;51.840;7.258;2023-01-10T00:59:55;7.40;99.90
58447;DHT22;44240;51.840;7.258;2023-01-10T01:02:20;7.30;99.90
58447;DHT22;44240;51.840;7.258;2023-01-10T01:04:46;7.30;99.90
58447;DHT22;44240;51.840;7.258;2023-01-10T01:07:12;7.40;99.90
58447;DHT22;44240;51.840;7.258;2023-01-10T01:09:37;7.40;99.90
58447;DHT22;44240;51.840;7.258;2023-01-10T01:12:23;7.40;99.90
58447;DHT22;44240;51.840;7.258;2023-01-10T01:14:48;7.40;99.90
58447;DHT22;44240;51.840;7.258;2023-01-10T01:17:14;7.40;99.90
58447;DHT22;44240;51.840;7.258;2023-01-10T01:19:40;7.40;99.90
58447;DHT22;44240;51.840;7.258;2023-01-10T01:22:05;7.40;99.90
58447;DHT22;44240;51.840;7.258;2023-01-10T01:24:31;7.40;99.90
58447;DHT22;44240;51.840;7.258;2023-01-10T01:26:56;7.40;99.90
58447;DHT22;44240;51.840;7.258;2023-01-10T01:29:22;7.40;99.90
58447;DHT22;44240;51.840;7.258;2023-01-10T01:31:49;7.40;99.90
58447;DHT22;44240;51.840;7.258;2023-01-10T01:34:14;7.40;99.90
58447;DHT22;44240;51.840;7.258;2023-01-10T01:36:40;7.40;99.90
58447;DHT22;44240;51.840;7.258;2023-01-10T01:39:05;7.40;99.90
58447;DHT22;44240;51.840;7.258;2023-01-10T01:41:31;7.30;99.90
58447;DHT22;44240;51.840;7.258;2023-01-10T01:44:17;7.30;99.90
58447;DHT22;44240;51.840;7.258;2023-01-10T01:46:49;7.30;99.90
58447;DHT22;44240;51.840;7.258;2023-01-10T01:49:20;7.30;99.90
58447;DHT22;44240;51.840;7.258;2023-01-10T01:51:49;7.30;99.90
58447;DHT22;44240;51.840;7.258;2023-01-10T01:54:16;7.30;99.90
58447;DHT22;44240;51.840;7.258;2023-01-10T01:56:53;7.30;99.90
58447;DHT22;44240;51.840;7.258;2023-01-10T01:59:47;7.40;99.90
58447;DHT22;44240;51.840;7.258;2023-01-10T02:02:27;7.30;99.90
58447;DHT22;44240;51.840;7.258;2023-01-10T02:05:02;7.40;99.90
58447;DHT22;44240;51.840;7.258;2023-01-10T02:07:35;7.40;99.90
58447;DHT22;44240;51.840;7.258;2023-01-10T02:12:36;7.40;99.90
58447;DHT22;44240;51.840;7.258;2023-01-10T02:15:03;7.40;99.90
58447;DHT22;44240;51.840;7.258;2023-01-10T02:17:29;7.40;99.90
58447;DHT22;44240;51.840;7.258;2023-01-10T02:20:07;7.30;99.90
58447;DHT22;44240;51.840;7.258;2023-01-10T02:31:55;7.30;99.90
58447;DHT22;44240;51.840;7.258;2023-01-10T02:42:41;7.20;99.90
58447;DHT22;44240;51.840;7.258;2023-01-10T02:45:13;7.30;99.90
58447;DHT22;44240;51.840;7.258;2023-01-10T02:47:41;7.20;99.90
58447;DHT22;44240;51.840;7.258;2023-01-10T02:53:05;7.30;99.90
58447;DHT22;44240;51.840;7.258;2023-01-10T02:55:59;7.30;99.90
58447;DHT22;44240;51.840;7.258;2023-01-10T02:58:45;7.30;99.90
58447;DHT22;44240;51.840;7.258;2023-01-10T03:10:02;7.30;99.90
58447;DHT22;44240;51.840;7.258;2023-01-10T03:12:48;7.30;99.90
58447;DHT22;44240;51.840;7.258;2023-01-10T03:15:18;7.30;99.90
58447;DHT22;44240;51.840;7.258;2023-01-10T03:17:49;7.30;99.90
58447;DHT22;44240;51.840;7.258;2023-01-10T03:20:18;7.30;99.90
58447;DHT22;44240;51.840;7.258;2023-01-10T03:22:46;7.30;99.90
58447;DHT22;44240;51.840;7.258;2023-01-10T03:25:13;7.30;99.90
58447;DHT22;44240;51.840;7.258;2023-01-10T03:32:45;7.30;99.90
58447;DHT22;44240;51.840;7.258;2023-01-10T03:35:12;7.30;99.90
58447;DHT22;44240;51.840;7.258;2023-01-10T03:37:48;7.30;99.90
58447;DHT22;44240;51.840;7.258;2023-01-10T03:40:56;7.30;99.90
58447;DHT22;44240;51.840;7.258;2023-01-10T03:46:43;7.30;99.90
58447;DHT22;44240;51.840;7.258;2023-01-10T03:49:11;7.30;99.90
58447;DHT22;44240;51.840;7.258;2023-01-10T03:51:38;7.20;99.90
58447;DHT22;44240;51.840;7.258;2023-01-10T03:54:04;7.20;99.90
58447;DHT22;44240;51.840;7.258;2023-01-10T03:56:30;7.20;99.90
58447;DHT22;44240;51.840;7.258;2023-01-10T03:58:56;7.20;99.90
58447;DHT22;44240;51.840;7.258;2023-01-10T04:01:21;7.10;99.90
58447;DHT22;44240;51.840;7.258;2023-01-10T04:03:47;7.10;99.90
58447;DHT22;44240;51.840;7.258;2023-01-10T04:06:12;7.10;99.90
58447;DHT22;44240;51.840;7.258;2023-01-10T04:08:38;7.10;99.90
58447;DHT22;44240;51.840;7.258;2023-01-10T04:11:04;7.10;99.90
58447;DHT22;44240;51.840;7.258;2023-01-10T04:13:29;7.10;99.90
58447;DHT22;44240;51.840;7.258;2023-01-10T04:15:55;7.10;99.90
58447;DHT22;44240;51.840;7.258;2023-01-10T04:18:20;7.00;99.90
58447;DHT22;44240;51.840;7.258;2023-01-10T04:20:46;7.00;99.90
58447;DHT22;44240;51.840;7.258;2023-01-10T04:23:11;7.00;99.90
58447;DHT22;44240;51.840;7.258;2023-01-10T04:25:37;6.90;99.90
58447;DHT22;44240;51.840;7.258;2023-01-10T04:28:02;6.90;99.90
58447;DHT22;44240;51.840;7.258;2023-01-10T04:30:28;6.90;99.90
58447;DHT22;44240;51.840;7.258;2023-01-10T04:32:53;6.90;99.90
58447;DHT22;44240;51.840;7.258;2023-01-10T04:35:19;6.80;99.90
58447;DHT22;44240;51.840;7.258;2023-01-10T04:37:44;6.90;99.90
58447;DHT22;44240;51.840;7.258;2023-01-10T04:40:10;6.90;99.90
58447;DHT22;44240;51.840;7.258;2023-01-10T04:42:37;6.90;99.90
58447;DHT22;44240;51.840;7.258;2023-01-10T04:45:03;7.00;99.90
58447;DHT22;44240;51.840;7.258;2023-01-10T04:47:28;7.00;99.90
58447;DHT22;44240;51.840;7.258;2023-01-10T04:49:54;7.00;99.90
58447;DHT22;44240;51.840;7.258;2023-01-10T04:52:19;7.00;99.90
58447;DHT22;44240;51.840;7.258;2023-01-10T04:54:45;7.00;99.90
58447;DHT22;44240;51.840;7.258;2023-01-10T04:57:10;7.10;99.90
58447;DHT22;44240;51.840;7.258;2023-01-10T04:59:36;7.10;99.90
58447;DHT22;44240;51.840;7.258;2023-01-10T05:02:01;7.10;99.90
58447;DHT22;44240;51.840;7.258;2023-01-10T05:04:27;7.10;99.90
58447;DHT22;44240;51.840;7.258;2023-01-10T05:06:52;7.10;99.90
58447;DHT22;44240;51.840;7.258;2023-01-10T05:09:18;7.10;99.90
58447;DHT22;44240;51.840;7.258;2023-01-10T05:11:43;7.10;99.90
58447;DHT22;44240;51.840;7.258;2023-01-10T05:14:09;7.10;99.90
58447;DHT22;44240;51.840;7.258;2023-01-10T05:16:34;7.00;99.90
58447;DHT22;44240;51.840;7.258;2023-01-10T05:19:00;7.00;99.90
58447;DHT22;44240;51.840;7.258;2023-01-10T05:21:26;7.00;99.90
58447;DHT22;44240;51.840;7.258;2023-01-10T05:23:52;7.00;99.90
58447;DHT22;44240;51.840;7.258;2023-01-10T05:26:21;7.00;99.90
58447;DHT22;44240;51.840;7.258;2023-01-10T05:28:47;7.10;99.90
58447;DHT22;44240;51.840;7.258;2023-01-10T05:31:15;7.00;99.90
58447;DHT22;44240;51.840;7.258;2023-01-10T05:33:46;7.10;99.90
58447;DHT22;44240;51.840;7.258;2023-01-10T05:36:13;7.10;99.90
58447;DHT22;44240;51.840;7.258;2023-01-10T05:38:38;7.10;99.90
58447;DHT22;44240;51.840;7.258;2023-01-10T05:41:04;7.10;99.90
58447;DHT22;44240;51.840;7.258;2023-01-10T05:43:30;7.10;99.90
58447;DHT22;44240;51.840;7.258;2023-01-10T05:45:55;7.10;99.90
58447;DHT22;44240;51.840;7.258;2023-01-10T05:48:21;7.10;99.90
58447;DHT22;44240;51.840;7.258;2023-01-10T05:50:48;7.10;99.90
58447;DHT22;44240;51.840;7.258;2023-01-10T05:53:14;7.10;99.90
58447;DHT22;44240;51.840;7.258;2023-01-10T05:55:39;7.10;99.90
58447;DHT22;44240;51.840;7.258;2023-01-10T05:58:05;7.10;99.90
58447;DHT22;44240;51.840;7.258;2023-01-10T06:00:30;7.20;99.90
58447;DHT22;44240;51.840;7.258;2023-01-10T06:02:56;7.20;99.90
58447;DHT22;44240;51.840;7.258;2023-01-10T06:05:23;7.20;99.90
58447;DHT22;44240;51.840;7.258;2023-01-10T06:07:49;7.20;99.90
58447;DHT22;44240;51.840;7.258;2023-01-10T06:10:15;7.20;99.90
58447;DHT22;44240;51.840;7.258;2023-01-10T06:12:41;7.20;99.90
58447;DHT22;44240;51.840;7.258;2023-01-10T06:15:08;7.20;99.90
58447;DHT22;44240;51.840;7.258;2023-01-10T06:17:34;7.20;99.90
58447;DHT22;44240;51.840;7.258;2023-01-10T06:19:59;7.20;99.90
58447;DHT22;44240;51.840;7.258;2023-01-10T06:22:25;7.20;99.90
58447;DHT22;44240;51.840;7.258;2023-01-10T06:24:52;7.20;99.90
58447;DHT22;44240;51.840;7.258;2023-01-10T06:27:18;7.20;99.90
58447;DHT22;44240;51.840;7.258;2023-01-10T06:29:44;7.20;99.90
58447;DHT22;44240;51.840;7.258;2023-01-10T06:32:09;7.20;99.90
58447;DHT22;44240;51.840;7.258;2023-01-10T06:34:35;7.20;99.90
58447;DHT22;44240;51.840;7.258;2023-01-10T06:37:00;7.20;99.90
58447;DHT22;44240;51.840;7.258;2023-01-10T06:39:26;7.10;99.90
58447;DHT22;44240;51.840;7.258;2023-01-10T06:41:51;7.10;99.90
58447;DHT22;44240;51.840;7.258;2023-01-10T06:44:17;7.10;99.90
58447;DHT22;44240;51.840;7.258;2023-01-10T06:46:42;7.00;99.90
58447;DHT22;44240;51.840;7.258;2023-01-10T06:49:08;7.00;99.90
58447;DHT22;44240;51.840;7.258;2023-01-10T06:51:33;7.00;99.90
58447;DHT22;44240;51.840;7.258;2023-01-10T06:53:59;7.00;99.90
58447;DHT22;44240;51.840;7.258;2023-01-10T06:56:24;7.00;99.90
58447;DHT22;44240;51.840;7.258;2023-01-10T06:58:50;6.90;99.90
58447;DHT22;44240;51.840;7.258;2023-01-10T07:01:18;6.90;99.90
58447;DHT22;44240;51.840;7.258;2023-01-10T07:03:44;6.90;99.90
58447;DHT22;44240;51.840;7.258;2023-01-10T07:06:09;6.80;99.90
58447;DHT22;44240;51.840;7.258;2023-01-10T07:08:36;6.80;99.90
58447;DHT22;44240;51.840;7.258;2023-01-10T07:11:02;6.80;99.90
58447;DHT22;44240;51.840;7.258;2023-01-10T07:13:27;6.70;99.90
58447;DHT22;44240;51.840;7.258;2023-01-10T07:16:01;6.70;99.90
58447;DHT22;44240;51.840;7.258;2023-01-10T07:18:26;6.70;99.90
58447;DHT22;44240;51.840;7.258;2023-01-10T07:20:52;6.70;99.90
58447;DHT22;44240;51.840;7.258;2023-01-10T07:23:17;6.70;99.90
58447;DHT22;44240;51.840;7.258;2023-01-10T07:25:43;6.70;99.90
58447;DHT22;44240;51.840;7.258;2023-01-10T07:28:08;6.60;99.90
58447;DHT22;44240;51.840;7.258;2023-01-10T07:30:34;6.60;99.90
58447;DHT22;44240;51.840;7.258;2023-01-10T07:33:00;6.60;99.90
58447;DHT22;44240;51.840;7.258;2023-01-10T07:35:28;6.60;99.90
58447;DHT22;44240;51.840;7.258;2023-01-10T07:37:57;6.60;99.90
58447;DHT22;44240;51.840;7.258;2023-01-10T07:40:22;6.70;99.90
58447;DHT22;44240;51.840;7.258;2023-01-10T07:42:48;6.70;99.90
58447;DHT22;44240;51.840;7.258;2023-01-10T07:45:14;6.60;99.90
58447;DHT22;44240;51.840;7.258;2023-01-10T07:47:39;6.60;99.90
58447;DHT22;44240;51.840;7.258;2023-01-10T07:50:05;6.60;99.90
58447;DHT22;44240;51.840;7.258;2023-01-10T07:52:32;6.60;99.90
58447;DHT22;44240;51.840;7.258;2023-01-10T07:54:57;6.60;99.90
58447;DHT22;44240;51.840;7.258;2023-01-10T07:57:23;6.60;99.90
58447;DHT22;44240;51.840;7.258;2023-01-10T07:59:48;6.60;99.90
58447;DHT22;44240;51.840;7.258;2023-01-10T08:02:14;6.60;99.90
58447;DHT22;44240;51.840;7.258;2023-01-10T08:04:39;6.50;99.90
58447;DHT22;44240;51.840;7.258;2023-01-10T08:07:05;6.60;99.90
58447;DHT22;44240;51.840;7.258;2023-01-10T08:09:31;6.60;99.90
58447;DHT22;44240;51.840;7.258;2023-01-10T08:11:57;6.60;99.90
58447;DHT22;44240;51.840;7.258;2023-01-10T08:14:22;6.60;99.90
58447;DHT22;44240;51.840;7.258;2023-01-10T08:16:48;6.60;99.90
58447;DHT22;44240;51.840;7.258;2023-01-10T08:19:14;6.60;99.90
58447;DHT22;44240;51.840;7.258;2023-01-10T08:21:42;6.60;99.90
58447;DHT22;44240;51.840;7.258;2023-01-10T08:24:08;6.50;99.90
58447;DHT22;44240;51.840;7.258;2023-01-10T08:26:33;6.50;99.90
58447;DHT22;44240;51.840;7.258;2023-01-10T08:28:59;6.50;99.90
58447;DHT22;44240;51.840;7.258;2023-01-10T08:31:25;6.50;99.90
58447;DHT22;44240;51.840;7.258;2023-01-10T08:33:50;6.50;99.90
58447;DHT22;44240;51.840;7.258;2023-01-10T08:36:18;6.60;99.90
58447;DHT22;44240;51.840;7.258;2023-01-10T08:38:43;6.60;99.90
58447;DHT22;44240;51.840;7.258;2023-01-10T08:41:09;6.60;99.90
58447;DHT22;44240;51.840;7.258;2023-01-10T08:43:35;6.60;99.90
58447;DHT22;44240;51.840;7.258;2023-01-10T08:46:00;6.60;99.90
58447;DHT22;44240;51.840;7.258;2023-01-10T08:48:26;6.70;99.90
58447;DHT22;44240;51.840;7.258;2023-01-10T08:50:51;6.70;99.90
58447;DHT22;44240;51.840;7.258;2023-01-10T08:53:17;6.70;99.90
58447;DHT22;44240;51.840;7.258;2023-01-10T08:55:42;6.70;99.90
58447;DHT22;44240;51.840;7.258;2023-01-10T08:58:09;6.70;99.90
58447;DHT22;44240;51.840;7.258;2023-01-10T09:00:35;6.70;99.90
58447;DHT22;44240;51.840;7.258;2023-01-10T09:03:00;6.70;99.90
58447;DHT22;44240;51.840;7.258;2023-01-10T09:05:26;6.80;99.90
58447;DHT22;44240;51.840;7.258;2023-01-10T09:07:52;6.80;99.90
58447;DHT22;44240;51.840;7.258;2023-01-10T09:10:17;6.80;99.90
58447;DHT22;44240;51.840;7.258;2023-01-10T09:12:43;6.80;99.90
58447;DHT22;44240;51.840;7.258;2023-01-10T09:15:23;6.90;99.90
58447;DHT22;44240;51.840;7.258;2023-01-10T09:17:48;6.90;99.90
58447;DHT22;44240;51.840;7.258;2023-01-10T09:20:14;6.90;99.90
58447;DHT22;44240;51.840;7.258;2023-01-10T09:22:40;6.90;99.90
58447;DHT22;44240;51.840;7.258;2023-01-10T09:25:06;6.90;99.90
58447;DHT22;44240;51.840;7.258;2023-01-10T09:27:32;6.90;99.90
58447;DHT22;44240;51.840;7.258;2023-01-10T09:29:57;7.00;99.90
58447;DHT22;44240;51.840;7.258;2023-01-10T09:32:23;7.00;99.90
58447;DHT22;44240;51.840;7.258;2023-01-10T09:34:49;7.00;99.90
58447;DHT22;44240;51.840;7.258;2023-01-10T09:37:14;7.00;99.90
58447;DHT22;44240;51.840;7.258;2023-01-10T09:39:40;7.00;99.90
58447;DHT22;44240;51.840;7.258;2023-01-10T09:45:10;7.10;99.90
58447;DHT22;44240;51.840;7.258;2023-01-10T09:47:54;7.10;99.90
58447;DHT22;44240;51.840;7.258;2023-01-10T09:53:13;7.20;99.90
58447;DHT22;44240;51.840;7.258;2023-01-10T09:55:41;7.20;99.90
58447;DHT22;44240;51.840;7.258;2023-01-10T09:58:13;7.30;99.90
58447;DHT22;44240;51.840;7.258;2023-01-10T10:00:44;7.30;99.90
58447;DHT22;44240;51.840;7.258;2023-01-10T10:05:52;7.50;99.90
58447;DHT22;44240;51.840;7.258;2023-01-10T10:08:18;7.60;99.90
58447;DHT22;44240;51.840;7.258;2023-01-10T10:13:25;7.70;99.90
58447;DHT22;44240;51.840;7.258;2023-01-10T10:27:02;7.90;99.90
58447;DHT22;44240;51.840;7.258;2023-01-10T10:37:41;7.90;99.90
58447;DHT22;44240;51.840;7.258;2023-01-10T10:40:23;8.00;99.90
58447;DHT22;44240;51.840;7.258;2023-01-10T10:42:52;8.10;99.90
58447;DHT22;44240;51.840;7.258;2023-01-10T10:48:09;8.20;99.90
58447;DHT22;44240;51.840;7.258;2023-01-10T10:53:20;8.30;99.90
58447;DHT22;44240;51.840;7.258;2023-01-10T10:55:45;8.30;99.90
58447;DHT22;44240;51.840;7.258;2023-01-10T10:58:12;8.30;99.90
58447;DHT22;44240;51.840;7.258;2023-01-10T11:00:39;8.40;99.90
58447;DHT22;44240;51.840;7.258;2023-01-10T11:05:52;8.50;99.90
58447;DHT22;44240;51.840;7.258;2023-01-10T11:08:19;8.50;99.90
58447;DHT22;44240;51.840;7.258;2023-01-10T11:10:57;8.50;99.90
58447;DHT22;44240;51.840;7.258;2023-01-10T11:15:59;8.40;99.90
58447;DHT22;44240;51.840;7.258;2023-01-10T11:18:26;8.30;99.90
58447;DHT22;44240;51.840;7.258;2023-01-10T11:21:03;8.30;99.90
58447;DHT22;44240;51.840;7.258;2023-01-10T11:23:40;8.40;99.90
58447;DHT22;44240;51.840;7.258;2023-01-10T11:26:10;8.40;99.90
58447;DHT22;44240;51.840;7.258;2023-01-10T11:28:46;8.40;99.90
58447;DHT22;44240;51.840;7.258;2023-01-10T11:31:11;8.50;99.90
58447;DHT22;44240;51.840;7.258;2023-01-10T11:33:37;8.50;99.90
58447;DHT22;44240;51.840;7.258;2023-01-10T11:36:06;8.60;99.90
58447;DHT22;44240;51.840;7.258;2023-01-10T11:38:33;8.60;99.90
58447;DHT22;44240;51.840;7.258;2023-01-10T11:41:05;8.70;99.90
58447;DHT22;44240;51.840;7.258;2023-01-10T11:43:35;8.70;99.90
58447;DHT22;44240;51.840;7.258;2023-01-10T11:46:04;8.70;99.90
58447;DHT22;44240;51.840;7.258;2023-01-10T11:48:51;8.70;99.90
58447;DHT22;44240;51.840;7.258;2023-01-10T11:51:22;8.60;99.90
58447;DHT22;44240;51.840;7.258;2023-01-10T11:53:58;8.60;99.90
58447;DHT22;44240;51.840;7.258;2023-01-10T11:56:27;8.60;99.90
58447;DHT22;44240;51.840;7.258;2023-01-10T11:58:54;8.60;99.90
58447;DHT22;44240;51.840;7.258;2023-01-10T12:04:04;8.70;99.90
58447;DHT22;44240;51.840;7.258;2023-01-10T12:06:31;8.70;99.90
58447;DHT22;44240;51.840;7.258;2023-01-10T12:08:57;8.70;99.90
58447;DHT22;44240;51.840;7.258;2023-01-10T12:11:31;8.60;99.90
58447;DHT22;44240;51.840;7.258;2023-01-10T12:13:59;8.60;99.90
58447;DHT22;44240;51.840;7.258;2023-01-10T12:16:30;8.70;99.90
58447;DHT22;44240;51.840;7.258;2023-01-10T12:18:59;8.70;99.90
58447;DHT22;44240;51.840;7.258;2023-01-10T12:21:38;8.70;99.90
58447;DHT22;44240;51.840;7.258;2023-01-10T12:26:39;8.70;99.90
58447;DHT22;44240;51.840;7.258;2023-01-10T12:29:16;8.70;99.90
58447;DHT22;44240;51.840;7.258;2023-01-10T12:31:43;8.70;99.70
58447;DHT22;44240;51.840;7.258;2023-01-10T12:34:20;8.60;99.80
58447;DHT22;44240;51.840;7.258;2023-01-10T12:37:04;8.70;99.80
58447;DHT22;44240;51.840;7.258;2023-01-10T12:39:38;8.60;99.80
58447;DHT22;44240;51.840;7.258;2023-01-10T12:47:34;8.80;99.90
58447;DHT22;44240;51.840;7.258;2023-01-10T12:50:19;8.90;99.90
58447;DHT22;44240;51.840;7.258;2023-01-10T12:55:42;9.00;99.80
58447;DHT22;44240;51.840;7.258;2023-01-10T12:58:36;8.90;99.80
58447;DHT22;44240;51.840;7.258;2023-01-10T13:01:04;9.00;99.70
58447;DHT22;44240;51.840;7.258;2023-01-10T13:03:32;9.00;99.60
58447;DHT22;44240;51.840;7.258;2023-01-10T13:05:59;9.00;99.80
58447;DHT22;44240;51.840;7.258;2023-01-10T13:08:28;9.00;99.50
58447;DHT22;44240;51.840;7.258;2023-01-10T13:10:57;9.00;99.40
58447;DHT22;44240;51.840;7.258;2023-01-10T13:13:35;9.00;99.60
58447;DHT22;44240;51.840;7.258;2023-01-10T13:16:41;9.10;99.50
58447;DHT22;44240;51.840;7.258;2023-01-10T13:21:38;9.10;98.90
58447;DHT22;44240;51.840;7.258;2023-01-10T13:24:21;9.00;98.70
58447;DHT22;44240;51.840;7.258;2023-01-10T13:26:51;9.00;98.90
58447;DHT22;44240;51.840;7.258;2023-01-10T13:29:21;9.10;99.00
58447;DHT22;44240;51.840;7.258;2023-01-10T13:31:47;9.10;99.00
58447;DHT22;44240;51.840;7.258;2023-01-10T13:34:15;9.10;99.00
58447;DHT22;44240;51.840;7.258;2023-01-10T13:36:50;9.10;99.00
58447;DHT22;44240;51.840;7.258;2023-01-10T14:03:42;9.20;99.00
58447;DHT22;44240;51.840;7.258;2023-01-10T14:11:53;9.30;99.00
58447;DHT22;44240;51.840;7.258;2023-01-10T14:14:27;9.30;98.90
58447;DHT22;44240;51.840;7.258;2023-01-10T14:17:14;9.30;99.00
58447;DHT22;44240;51.840;7.258;2023-01-10T14:19:45;9.30;98.90
58447;DHT22;44240;51.840;7.258;2023-01-10T14:22:24;9.30;98.80
58447;DHT22;44240;51.840;7.258;2023-01-10T14:24:52;9.30;98.60
58447;DHT22;44240;51.840;7.258;2023-01-10T14:27:19;9.20;98.50
58447;DHT22;44240;51.840;7.258;2023-01-10T14:29:55;9.30;98.40
58447;DHT22;44240;51.840;7.258;2023-01-10T14:32:36;9.20;98.40
58447;DHT22;44240;51.840;7.258;2023-01-10T14:35:07;9.20;97.90
58447;DHT22;44240;51.840;7.258;2023-01-10T14:37:41;9.20;98.20
58447;DHT22;44240;51.840;7.258;2023-01-10T14:42:54;9.20;97.70
58447;DHT22;44240;51.840;7.258;2023-01-10T14:45:53;9.20;97.80
58447;DHT22;44240;51.840;7.258;2023-01-10T14:50:48;9.20;97.60
58447;DHT22;44240;51.840;7.258;2023-01-10T14:53:34;9.20;97.50
58447;DHT22;44240;51.840;7.258;2023-01-10T14:55:59;9.20;97.20
58447;DHT22;44240;51.840;7.258;2023-01-10T14:58:25;9.20;97.10
58447;DHT22;44240;51.840;7.258;2023-01-10T15:00:53;9.20;97.10
58447;DHT22;44240;51.840;7.258;2023-01-10T15:03:22;9.20;97.00
58447;DHT22;44240;51.840;7.258;2023-01-10T15:05:52;9.20;97.00
58447;DHT22;44240;51.840;7.258;2023-01-10T15:08:28;9.20;97.00
58447;DHT22;44240;51.840;7.258;2023-01-10T15:10:59;9.30;96.90
58447;DHT22;44240;51.840;7.258;2023-01-10T15:13:27;9.30;96.90
58447;DHT22;44240;51.840;7.258;2023-01-10T15:15:54;9.20;96.60
58447;DHT22;44240;51.840;7.258;2023-01-10T15:20:46;9.20;96.40
58447;DHT22;44240;51.840;7.258;2023-01-10T15:23:13;9.20;96.50
58447;DHT22;44240;51.840;7.258;2023-01-10T15:25:40;9.20;96.50
58447;DHT22;44240;51.840;7.258;2023-01-10T15:28:15;9.20;96.40
58447;DHT22;44240;51.840;7.258;2023-01-10T15:30:41;9.20;96.30
58447;DHT22;44240;51.840;7.258;2023-01-10T15:33:16;9.20;96.30
58447;DHT22;44240;51.840;7.258;2023-01-10T15:35:44;9.20;96.00
58447;DHT22;44240;51.840;7.258;2023-01-10T15:38:15;9.20;96.30
58447;DHT22;44240;51.840;7.258;2023-01-10T15:40:41;9.20;96.10
58447;DHT22;44240;51.840;7.258;2023-01-10T15:45:51;9.20;96.10
58447;DHT22;44240;51.840;7.258;2023-01-10T15:48:39;9.20;95.80
58447;DHT22;44240;51.840;7.258;2023-01-10T15:51:21;9.20;95.90
58447;DHT22;44240;51.840;7.258;2023-01-10T15:53:53;9.20;95.80
58447;DHT22;44240;51.840;7.258;2023-01-10T15:58:59;9.10;96.00
58447;DHT22;44240;51.840;7.258;2023-01-10T16:01:25;9.10;95.90
58447;DHT22;44240;51.840;7.258;2023-01-10T16:03:55;9.10;96.10
58447;DHT22;44240;51.840;7.258;2023-01-10T16:06:42;9.10;96.30
58447;DHT22;44240;51.840;7.258;2023-01-10T16:09:19;9.20;96.30
58447;DHT22;44240;51.840;7.258;2023-01-10T16:11:47;9.10;96.20
58447;DHT22;44240;51.840;7.258;2023-01-10T16:14:32;9.10;96.10
58447;DHT22;44240;51.840;7.258;2023-01-10T16:17:02;9.10;96.00
58447;DHT22;44240;51.840;7.258;2023-01-10T16:19:28;9.00;95.70
58447;DHT22;44240;51.840;7.258;2023-01-10T16:21:57;9.00;95.90
58447;DHT22;44240;51.840;7.258;2023-01-10T16:24:28;9.00;96.00
58447;DHT22;44240;51.840;7.258;2023-01-10T16:26:56;9.00;95.90
58447;DHT22;44240;51.840;7.258;2023-01-10T16:29:22;9.00;95.40
58447;DHT22;44240;51.840;7.258;2023-01-10T16:31:49;9.00;95.60
58447;DHT22;44240;51.840;7.258;2023-01-10T16:34:16;9.00;95.70
58447;DHT22;44240;51.840;7.258;2023-01-10T16:36:42;9.00;95.90
58447;DHT22;44240;51.840;7.258;2023-01-10T16:39:14;9.00;95.90
58447;DHT22;44240;51.840;7.258;2023-01-10T16:41:41;9.00;95.90
58447;DHT22;44240;51.840;7.258;2023-01-10T16:44:26;8.90;95.70
58447;DHT22;44240;51.840;7.258;2023-01-10T16:46:51;8.90;95.70
58447;DHT22;44240;51.840;7.258;2023-01-10T16:49:18;8.90;95.50
58447;DHT22;44240;51.840;7.258;2023-01-10T16:51:44;8.90;95.70
58447;DHT22;44240;51.840;7.258;2023-01-10T16:54:18;8.90;95.80
58447;DHT22;44240;51.840;7.258;2023-01-10T16:56:47;8.80;96.00
58447;DHT22;44240;51.840;7.258;2023-01-10T16:59:14;8.80;96.70
58447;DHT22;44240;51.840;7.258;2023-01-10T17:01:47;8.70;96.90
58447;DHT22;44240;51.840;7.258;2023-01-10T17:04:19;8.70;97.20
58447;DHT22;44240;51.840;7.258;2023-01-10T17:06:45;8.70;97.80
58447;DHT22;44240;51.840;7.258;2023-01-10T17:09:26;8.60;97.90
58447;DHT22;44240;51.840;7.258;2023-01-10T17:11:59;8.60;98.30
58447;DHT22;44240;51.840;7.258;2023-01-10T17:14:30;8.60;98.80
58447;DHT22;44240;51.840;7.258;2023-01-10T17:16:56;8.50;98.90
58447;DHT22;44240;51.840;7.258;2023-01-10T17:19:22;8.50;99.40
58447;DHT22;44240;51.840;7.258;2023-01-10T17:21:47;8.50;99.70
58447;DHT22;44240;51.840;7.258;2023-01-10T17:24:13;8.50;99.90
58447;DHT22;44240;51.840;7.258;2023-01-10T17:26:38;8.40;99.90
58447;DHT22;44240;51.840;7.258;2023-01-10T17:29:04;8.40;99.90
58447;DHT22;44240;51.840;7.258;2023-01-10T17:31:29;8.40;99.90
58447;DHT22;44240;51.840;7.258;2023-01-10T17:33:55;8.40;99.90
58447;DHT22;44240;51.840;7.258;2023-01-10T17:36:20;8.30;99.90
58447;DHT22;44240;51.840;7.258;2023-01-10T17:38:47;8.30;99.90
58447;DHT22;44240;51.840;7.258;2023-01-10T17:41:12;8.30;99.90
58447;DHT22;44240;51.840;7.258;2023-01-10T17:43:38;8.30;99.90
58447;DHT22;44240;51.840;7.258;2023-01-10T17:46:04;8.30;99.90
58447;DHT22;44240;51.840;7.258;2023-01-10T17:48:32;8.30;99.90
58447;DHT22;44240;51.840;7.258;2023-01-10T17:51:00;8.30;99.90
58447;DHT22;44240;51.840;7.258;2023-01-10T17:53:26;8.20;99.90
58447;DHT22;44240;51.840;7.258;2023-01-10T17:55:52;8.20;99.90
58447;DHT22;44240;51.840;7.258;2023-01-10T17:58:18;8.10;99.90
58447;DHT22;44240;51.840;7.258;2023-01-10T18:00:44;8.20;99.90
58447;DHT22;44240;51.840;7.258;2023-01-10T18:03:13;8.20;99.90
58447;DHT22;44240;51.840;7.258;2023-01-10T18:05:48;8.10;99.90
58447;DHT22;44240;51.840;7.258;2023-01-10T18:08:13;8.20;99.90
58447;DHT22;44240;51.840;7.258;2023-01-10T18:10:39;8.10;99.90
58447;DHT22;44240;51.840;7.258;2023-01-10T18:13:04;8.10;99.90
58447;DHT22;44240;51.840;7.258;2023-01-10T18:15:30;8.10;99.90